Time;durP1;ratioP1;P1;durP2;ratioP2;P2;SDS_P1;SDS_P2;PMS_P1;PMS_P2;Temp;Humidity;BMP_temperature;BMP_pressure;BME280_temperature;BME280_humidity;BME280_pressure;Samples;Min_cycle;Max_cycle;Signal;HPM_P1;HPM_P2
2021/09/13 00:00:40;;;;;;;22.05;12.25;;;;;;;17.08;100.00;101871.97;5080801;28;20071;-61
2021/09/13 00:03:08;;;;;;;18.17;11.27;;;;;;;17.02;100.00;101857.44;5082238;28;20032;-61
2021/09/13 00:05:33;;;;;;;19.90;12.30;;;;;;;17.02;100.00;101862.03;5080750;28;20765;-61
2021/09/13 00:07:59;;;;;;;19.70;11.10;;;;;;;16.90;100.00;101859.13;5062715;28;20038;-61
2021/09/13 00:10:24;;;;;;;24.55;13.25;;;;;;;15.14;100.00;101849.28;5088480;28;20287;-60
2021/09/13 00:12:50;;;;;;;20.42;11.50;;;;;;;13.78;100.00;101862.81;5092795;28;20364;-61
2021/09/13 00:15:16;;;;;;;23.00;13.73;;;;;;;13.39;100.00;101856.78;5074552;28;20093;-61
2021/09/13 00:17:42;;;;;;;23.47;12.30;;;;;;;13.89;100.00;101861.47;5092923;28;20252;-61
2021/09/13 00:20:08;;;;;;;23.52;12.88;;;;;;;13.50;100.00;101858.19;5092693;28;20616;-60
2021/09/13 00:22:36;;;;;;;23.67;12.60;;;;;;;14.04;100.00;101859.56;5092878;28;20160;-61
2021/09/13 00:25:02;;;;;;;21.50;12.67;;;;;;;13.34;100.00;101854.66;5092527;28;20364;-61
2021/09/13 00:27:28;;;;;;;20.33;11.77;;;;;;;13.22;100.00;101858.88;5074535;28;20311;-60
2021/09/13 00:29:56;;;;;;;21.70;12.53;;;;;;;13.15;100.00;101858.78;5092831;28;20056;-60
2021/09/13 00:32:21;;;;;;;22.52;13.68;;;;;;;13.07;100.00;101852.69;5074784;28;20326;-61
2021/09/13 00:34:47;;;;;;;21.63;12.02;;;;;;;13.06;100.00;101854.56;5092654;28;20556;-61
2021/09/13 00:37:13;;;;;;;20.92;12.88;;;;;;;15.04;100.00;101855.88;5074339;28;20561;-60
2021/09/13 00:39:39;;;;;;;23.13;12.68;;;;;;;13.57;100.00;101863.66;5057902;28;20096;-60
2021/09/13 00:42:05;;;;;;;24.60;12.90;;;;;;;15.25;100.00;101861.34;5092334;28;20028;-60
2021/09/13 00:44:33;;;;;;;22.60;11.97;;;;;;;14.77;100.00;101852.22;5092515;28;20315;-60
2021/09/13 00:46:59;;;;;;;21.23;13.25;;;;;;;13.34;100.00;101860.03;5092516;28;20293;-62
2021/09/13 00:49:25;;;;;;;23.38;13.05;;;;;;;13.08;100.00;101857.03;5092704;28;20032;-61
2021/09/13 00:51:51;;;;;;;27.13;13.88;;;;;;;16.00;100.00;101850.53;5074595;28;20044;-59
2021/09/13 00:54:18;;;;;;;25.75;14.60;;;;;;;16.42;100.00;101849.47;5091994;28;20471;-61
2021/09/13 00:56:44;;;;;;;24.15;13.52;;;;;;;16.55;100.00;101844.06;5092660;28;20060;-60
2021/09/13 00:59:10;;;;;;;23.33;13.88;;;;;;;14.36;100.00;101834.97;5092518;28;20051;-60
2021/09/13 01:01:36;;;;;;;27.90;15.67;;;;;;;15.99;100.00;101850.75;5057669;28;20067;-60
2021/09/13 01:04:02;;;;;;;36.00;16.92;;;;;;;13.29;100.00;101850.91;5074260;28;20323;-60
2021/09/13 01:06:27;;;;;;;27.17;15.50;;;;;;;12.99;100.00;101838.34;5074668;28;20068;-60
2021/09/13 01:08:54;;;;;;;24.55;13.70;;;;;;;12.88;100.00;101849.56;5057470;28;20040;-61
2021/09/13 01:11:20;;;;;;;23.05;14.23;;;;;;;14.38;100.00;101840.97;5092052;28;20032;-60
2021/09/13 01:13:46;;;;;;;25.27;14.88;;;;;;;14.73;100.00;101840.19;5074542;28;20062;-60
2021/09/13 01:16:12;;;;;;;29.03;14.90;;;;;;;14.99;100.00;101831.44;5057393;28;20050;-61
2021/09/13 01:18:39;;;;;;;31.07;16.13;;;;;;;14.88;100.00;101840.06;5074218;28;20751;-63
2021/09/13 01:21:07;;;;;;;27.33;14.30;;;;;;;14.79;100.00;101843.97;5075426;28;20347;-61
2021/09/13 01:23:36;;;;;;;29.20;15.90;;;;;;;14.85;100.00;101837.78;5077589;28;20319;-61
2021/09/13 01:26:10;;;;;;;21.13;13.73;;;;;;;15.34;100.00;101849.38;5061824;28;20252;-61
2021/09/13 01:28:37;;;;;;;26.77;14.83;;;;;;;15.14;100.00;101838.50;5077540;28;20659;-61
2021/09/13 01:31:05;;;;;;;27.03;15.37;;;;;;;15.15;100.00;101845.56;5077488;28;20264;-61
2021/09/13 01:33:34;;;;;;;28.93;15.17;;;;;;;14.89;100.00;101850.63;5077722;28;20280;-61
2021/09/13 01:36:00;;;;;;;30.10;15.15;;;;;;;15.10;100.00;101851.53;5077228;28;20794;-59
2021/09/13 01:38:30;;;;;;;26.70;14.98;;;;;;;15.09;100.00;101841.78;5077403;28;20048;-61
2021/09/13 01:40:56;;;;;;;25.83;15.03;;;;;;;15.02;100.00;101838.25;5071905;28;20079;-61
2021/09/13 01:43:22;;;;;;;32.77;17.73;;;;;;;14.95;100.00;101849.00;5072524;28;20304;-61
2021/09/13 01:45:48;;;;;;;34.45;17.02;;;;;;;14.85;100.00;101835.88;5057367;28;20044;-62
2021/09/13 01:48:14;;;;;;;29.10;14.95;;;;;;;15.00;100.00;101851.09;5056909;28;20476;-61
2021/09/13 01:50:41;;;;;;;31.53;15.80;;;;;;;15.08;100.00;101842.81;5056810;28;20099;-61
2021/09/13 01:53:06;;;;;;;;;;;;;;;14.82;100.00;101846.25;5056809;28;20027;-61
2021/09/13 01:55:32;;;;;;;31.53;16.10;;;;;;;15.04;100.00;101846.97;5057042;28;19912;-61
2021/09/13 01:57:58;;;;;;;32.38;17.08;;;;;;;14.84;100.00;101853.06;5065557;28;20494;-61
2021/09/13 02:00:25;;;;;;;30.03;15.73;;;;;;;14.82;100.00;101844.38;5062313;28;20356;-61
2021/09/13 02:02:51;;;;;;;30.63;15.13;;;;;;;14.85;100.00;101843.16;5084285;28;20277;-61
2021/09/13 02:05:27;;;;;;;30.08;16.20;;;;;;;14.17;100.00;101842.69;5061585;28;20479;-60
2021/09/13 02:07:55;;;;;;;34.07;16.33;;;;;;;13.44;100.00;101845.53;5076678;28;20051;-61
2021/09/13 02:10:23;;;;;;;32.30;16.27;;;;;;;12.74;100.00;101856.59;5056722;28;20328;-61
2021/09/13 02:12:49;;;;;;;28.65;15.35;;;;;;;13.50;100.00;101843.94;5077002;28;20281;-60
2021/09/13 02:15:15;;;;;;;34.67;16.45;;;;;;;12.58;100.00;101855.78;5066643;28;20051;-60
2021/09/13 02:17:40;;;;;;;26.77;15.73;;;;;;;12.44;100.00;101848.53;5031727;28;20036;-61
2021/09/13 02:20:10;;;;;;;28.67;15.63;;;;;;;12.22;100.00;101844.84;5056403;28;20037;-62
2021/09/13 02:22:36;;;;;;;28.90;15.27;;;;;;;12.21;100.00;101854.78;5056651;28;20276;-61
2021/09/13 02:25:02;;;;;;;33.13;15.50;;;;;;;12.16;100.00;101849.94;5047220;28;20032;-62
2021/09/13 02:27:29;;;;;;;28.17;15.90;;;;;;;12.16;100.00;101836.53;5056089;28;20392;-61
2021/09/13 02:29:54;;;;;;;33.47;14.98;;;;;;;12.16;100.00;101841.91;5039778;28;20261;-61
2021/09/13 02:32:20;;;;;;;29.08;15.98;;;;;;;12.12;100.00;101839.78;5055833;28;20509;-61
2021/09/13 02:34:45;;;;;;;27.75;15.65;;;;;;;12.24;100.00;101837.50;5056144;28;20024;-61
2021/09/13 02:37:11;;;;;;;33.67;16.45;;;;;;;12.15;100.00;101834.88;5073861;28;20049;-61
2021/09/13 02:39:37;;;;;;;;;;;;;;;12.09;100.00;101827.56;5056631;28;20542;-61
2021/09/13 02:42:04;;;;;;;25.80;14.37;;;;;;;12.04;100.00;101829.97;5056070;28;19974;-61
2021/09/13 02:44:29;;;;;;;30.10;16.08;;;;;;;12.07;100.00;101843.00;5055810;28;20273;-61
2021/09/13 02:46:55;;;;;;;29.35;15.20;;;;;;;12.03;100.00;101839.84;5055999;28;20059;-61
2021/09/13 02:49:21;;;;;;;31.92;16.48;;;;;;;12.01;100.00;101838.38;5055543;28;20032;-61
2021/09/13 02:51:47;;;;;;;31.92;15.93;;;;;;;13.36;100.00;101838.38;5056376;28;20573;-61
2021/09/13 02:54:12;;;;;;;28.70;15.63;;;;;;;12.31;100.00;101827.69;5055629;28;20078;-61
2021/09/13 02:56:39;;;;;;;27.80;16.55;;;;;;;12.03;100.00;101831.78;5056184;28;20045;-60
2021/09/13 02:59:04;;;;;;;30.27;15.90;;;;;;;12.00;100.00;101836.66;5073777;28;20408;-61
2021/09/13 03:01:30;;;;;;;27.80;16.17;;;;;;;11.88;100.00;101825.53;5073358;28;20055;-61
2021/09/13 03:03:56;;;;;;;30.47;16.10;;;;;;;11.94;100.00;101838.22;5055596;28;20433;-61
2021/09/13 03:06:21;;;;;;;37.55;18.17;;;;;;;11.91;100.00;101833.22;5072267;28;20768;-61
2021/09/13 03:08:47;;;;;;;31.85;15.88;;;;;;;11.94;100.00;101830.16;5055342;28;20436;-62
2021/09/13 03:11:13;;;;;;;36.35;17.33;;;;;;;11.91;100.00;101830.53;5055348;28;20045;-61
2021/09/13 03:13:39;;;;;;;31.83;17.23;;;;;;;11.87;100.00;101832.72;5039192;28;20049;-60
2021/09/13 03:16:06;;;;;;;28.10;15.43;;;;;;;11.91;100.00;101838.56;5055552;28;20066;-61
2021/09/13 03:18:34;;;;;;;30.67;16.50;;;;;;;11.90;100.00;101837.72;5073089;28;20048;-63
2021/09/13 03:21:02;;;;;;;35.40;17.90;;;;;;;11.86;100.00;101840.94;5039139;28;20262;-62
2021/09/13 03:23:27;;;;;;;29.13;17.13;;;;;;;11.87;100.00;101835.41;5055179;28;20277;-61
2021/09/13 03:25:53;;;;;;;33.28;16.58;;;;;;;11.86;100.00;101840.94;5055210;28;20024;-61
2021/09/13 03:28:19;;;;;;;33.30;17.23;;;;;;;11.78;100.00;101825.78;5072896;28;20037;-60
2021/09/13 03:30:45;;;;;;;29.35;16.20;;;;;;;11.88;100.00;101837.06;5038614;28;20066;-61
2021/09/13 03:33:11;;;;;;;27.50;15.50;;;;;;;11.84;100.00;101832.25;5054936;28;20500;-60
2021/09/13 03:35:37;;;;;;;38.67;17.53;;;;;;;14.68;100.00;101831.84;5075423;28;20264;-61
2021/09/13 03:38:04;;;;;;;33.57;18.03;;;;;;;15.16;100.00;101815.72;5065416;28;20314;-61
2021/09/13 03:40:29;;;;;;;35.58;17.42;;;;;;;15.39;100.00;101819.09;5071537;28;20265;-61
2021/09/13 03:42:55;;;;;;;30.52;15.32;;;;;;;15.34;100.00;101817.84;5055049;28;20044;-61
2021/09/13 03:45:21;;;;;;;31.13;15.70;;;;;;;15.48;100.00;101818.69;5054619;28;20519;-61
2021/09/13 03:48:22;;;;;;;31.40;16.13;;;;;;;15.43;100.00;101810.41;5010185;28;20482;-60
2021/09/13 03:50:48;;;;;;;;;;;;;;;15.44;100.00;101816.63;5067092;28;20297;-61
2021/09/13 03:53:14;;;;;;;35.17;18.53;;;;;;;15.49;100.00;101812.28;5060350;28;20396;-57
2021/09/13 03:55:40;;;;;;;76.68;40.75;;;;;;;15.58;100.00;101810.22;5054329;28;20044;-61
2021/09/13 03:58:07;;;;;;;28.50;17.00;;;;;;;15.62;100.00;101810.66;5071095;28;20108;-61
2021/09/13 04:00:34;;;;;;;29.88;15.98;;;;;;;12.59;100.00;101824.38;5054624;28;20287;-61
2021/09/13 04:03:04;;;;;;;37.00;18.37;;;;;;;15.08;100.00;101820.47;5075061;28;20403;-61
2021/09/13 04:05:30;;;;;;;38.00;19.90;;;;;;;15.51;100.00;101820.19;5074649;28;20671;-61
2021/09/13 04:08:35;;;;;;;35.10;16.70;;;;;;;15.61;100.00;101820.59;5092524;28;20610;-57
2021/09/13 04:11:26;;;;;;;32.70;15.33;;;;;;;15.54;100.00;101819.75;5074819;28;20755;-60
2021/09/13 04:14:30;;;;;;;31.00;15.00;;;;;;;15.51;100.00;101808.53;5080847;28;20293;-61
2021/09/13 04:17:11;;;;;;;26.23;15.33;;;;;;;15.53;100.00;101814.56;5074916;28;20636;-60
2021/09/13 04:19:59;;;;;;;28.50;15.10;;;;;;;15.51;100.00;101809.38;5077960;28;20280;-60
2021/09/13 04:22:34;;;;;;;39.17;18.23;;;;;;;15.52;100.00;101818.28;5059049;28;20748;-61
2021/09/13 04:25:25;;;;;;;30.70;16.97;;;;;;;15.45;100.00;101808.34;5054179;28;20362;-60
2021/09/13 04:28:10;;;;;;;26.97;14.37;;;;;;;15.43;100.00;101814.94;5054595;28;20317;-60
2021/09/13 04:30:52;;;;;;;30.97;15.83;;;;;;;15.39;100.00;101814.56;5040535;28;20276;-60
2021/09/13 04:33:36;;;;;;;27.40;14.63;;;;;;;15.41;100.00;101803.56;5072597;28;20276;-60
2021/09/13 04:36:22;;;;;;;27.70;14.70;;;;;;;15.36;100.00;101801.47;5041001;28;20266;-60
2021/09/13 04:39:17;;;;;;;26.40;14.40;;;;;;;15.36;100.00;101800.66;5058604;28;20281;-61
2021/09/13 04:42:09;;;;;;;26.90;14.67;;;;;;;15.40;100.00;101810.81;5054483;28;20360;-61
2021/09/13 04:44:53;;;;;;;27.40;15.40;;;;;;;15.37;100.00;101810.38;5072534;28;20744;-62
2021/09/13 04:47:37;;;;;;;33.63;14.97;;;;;;;14.68;100.00;101808.44;5072294;28;20304;-61
2021/09/13 04:50:34;;;;;;;29.10;14.50;;;;;;;12.99;100.00;101811.50;5072388;28;20377;-62
2021/09/13 04:53:17;;;;;;;31.73;14.83;;;;;;;12.35;100.00;101814.75;5054282;28;20289;-59
2021/09/13 04:55:43;;;;;;;28.33;14.45;;;;;;;12.19;100.00;101819.25;5055081;28;20283;-61
2021/09/13 04:58:09;;;;;;;36.13;14.90;;;;;;;12.16;100.00;101815.09;5057954;28;20056;-60
2021/09/13 05:00:34;;;;;;;34.47;15.00;;;;;;;12.11;100.00;101820.16;5057903;28;20048;-61
2021/09/13 05:03:00;;;;;;;32.00;14.38;;;;;;;12.10;100.00;101818.50;5075927;28;20258;-61
2021/09/13 05:05:25;;;;;;;32.42;15.98;;;;;;;12.07;100.00;101821.53;5075853;28;20047;-61
2021/09/13 05:07:51;;;;;;;29.77;14.02;;;;;;;12.10;100.00;101831.91;5075766;28;20582;-61
2021/09/13 05:10:17;;;;;;;27.35;14.80;;;;;;;12.12;100.00;101829.88;5057956;28;20056;-60
2021/09/13 05:12:42;;;;;;;31.03;15.63;;;;;;;12.10;100.00;101831.91;5057843;28;20166;-61
2021/09/13 05:15:10;;;;;;;35.23;16.10;;;;;;;12.12;100.00;101834.41;5057747;28;20760;-60
2021/09/13 05:17:36;;;;;;;36.50;16.47;;;;;;;12.11;100.00;101832.72;5057266;28;20272;-61
2021/09/13 05:20:03;;;;;;;32.42;15.82;;;;;;;12.15;100.00;101850.13;5059082;28;20327;-61
2021/09/13 05:22:30;;;;;;;28.30;15.40;;;;;;;12.14;100.00;101849.28;5064076;28;20387;-60
2021/09/13 05:24:56;;;;;;;29.67;15.37;;;;;;;12.21;100.00;101848.56;5066007;28;20292;-60
2021/09/13 05:27:23;;;;;;;25.77;13.53;;;;;;;12.20;100.00;101855.78;5057650;28;20281;-55
2021/09/13 05:29:50;;;;;;;29.57;14.97;;;;;;;12.24;100.00;101853.59;5066960;28;20543;-60
2021/09/13 05:32:16;;;;;;;28.02;14.18;;;;;;;12.26;100.00;101856.91;5074548;28;20329;-60
2021/09/13 05:34:42;;;;;;;;;;;;;;;12.27;100.00;101864.75;5077740;28;20139;-61
2021/09/13 05:37:10;;;;;;;37.05;15.60;;;;;;;12.27;100.00;101855.91;5077411;28;19962;-61
2021/09/13 05:39:35;;;;;;;32.85;16.65;;;;;;;12.27;100.00;101853.22;5076822;28;20044;-62
2021/09/13 05:42:05;;;;;;;29.30;16.07;;;;;;;12.26;100.00;101847.00;5061232;28;20036;-61
2021/09/13 05:44:39;;;;;;;28.00;15.90;;;;;;;12.31;100.00;101854.50;5076900;28;20387;-62
2021/09/13 05:47:04;;;;;;;32.07;16.37;;;;;;;12.29;100.00;101857.38;5067788;28;20278;-60
2021/09/13 05:49:30;;;;;;;30.15;16.00;;;;;;;12.34;100.00;101848.78;5066017;28;20284;-61
2021/09/13 05:51:55;;;;;;;28.17;16.63;;;;;;;12.37;100.00;101847.59;5070754;28;20074;-61
2021/09/13 05:54:47;;;;;;;31.00;15.90;;;;;;;12.38;100.00;101855.44;5092144;28;20044;-60
2021/09/13 05:57:14;;;;;;;25.90;15.13;;;;;;;12.42;100.00;101855.94;5044669;28;20298;-60
2021/09/13 05:59:40;;;;;;;27.42;15.02;;;;;;;12.42;100.00;101854.06;5078042;28;20272;-61
2021/09/13 06:02:10;;;;;;;26.13;14.87;;;;;;;12.40;100.00;101850.72;5069680;28;20044;-60
2021/09/13 06:04:40;;;;;;;30.70;14.40;;;;;;;12.44;100.00;101857.38;5071084;28;20331;-60
2021/09/13 06:07:07;;;;;;;27.10;13.80;;;;;;;12.50;100.00;101860.38;5067777;28;20292;-60
2021/09/13 06:09:34;;;;;;;30.77;14.82;;;;;;;12.52;100.00;101866.41;5066460;28;20752;-61
2021/09/13 06:11:59;;;;;;;32.70;15.55;;;;;;;12.55;100.00;101860.66;5071125;28;20043;-61
2021/09/13 06:14:32;;;;;;;28.50;14.37;;;;;;;12.61;100.00;101870.66;5067581;28;20029;-61
2021/09/13 06:16:58;;;;;;;29.27;14.80;;;;;;;12.64;100.00;101872.97;5066165;28;20264;-63
2021/09/13 06:19:24;;;;;;;29.65;14.32;;;;;;;12.70;100.00;101872.25;5069757;28;20760;-60
2021/09/13 06:21:50;;;;;;;24.40;14.13;;;;;;;12.74;100.00;101868.16;5047338;28;20052;-60
2021/09/13 06:24:16;;;;;;;23.17;11.80;;;;;;;12.77;100.00;101854.38;5068098;28;20028;-60
2021/09/13 06:26:43;;;;;;;25.60;12.50;;;;;;;12.88;100.00;101866.50;5065740;28;20094;-61
2021/09/13 06:29:09;;;;;;;19.83;10.95;;;;;;;12.91;100.00;101866.13;5056985;28;20273;-61
2021/09/13 06:31:35;;;;;;;20.63;12.05;;;;;;;12.95;100.00;101863.06;5056131;28;20126;-61
2021/09/13 06:34:03;;;;;;;22.03;11.60;;;;;;;13.05;100.00;101864.44;5056840;28;20040;-62
2021/09/13 06:36:28;;;;;;;20.10;10.13;;;;;;;13.10;100.00;101857.69;5067224;28;20293;-58
2021/09/13 06:38:54;;;;;;;23.98;11.98;;;;;;;15.10;100.00;101853.41;5082633;28;20119;-63
2021/09/13 06:41:20;;;;;;;19.83;10.60;;;;;;;15.79;100.00;101859.63;5041819;28;20128;-63
2021/09/13 06:43:48;;;;;;;21.50;9.17;;;;;;;16.05;100.00;101866.09;5088020;28;20040;-61
2021/09/13 06:46:23;;;;;;;17.10;9.33;;;;;;;16.15;100.00;101863.00;5072512;28;20360;-62
2021/09/13 06:48:49;;;;;;;21.03;10.13;;;;;;;16.18;100.00;101862.56;5075991;28;20795;-63
2021/09/13 06:51:15;;;;;;;17.27;8.77;;;;;;;14.28;100.00;101865.53;5064374;28;20268;-62
2021/09/13 06:53:40;;;;;;;18.10;8.43;;;;;;;13.77;100.00;101867.38;5086776;28;20040;-63
2021/09/13 06:56:06;;;;;;;19.43;7.77;;;;;;;13.71;100.00;101875.38;5096784;28;20087;-63
2021/09/13 06:58:34;;;;;;;14.35;7.18;;;;;;;13.73;100.00;101870.63;5083808;28;20115;-62
2021/09/13 07:00:59;;;;;;;18.40;7.47;;;;;;;13.80;100.00;101873.38;5055421;28;20392;-62
2021/09/13 07:03:25;;;;;;;15.82;7.93;;;;;;;13.90;100.00;101876.56;5073207;28;20265;-62
2021/09/13 07:05:51;;;;;;;12.65;6.53;;;;;;;14.02;100.00;101877.75;5073174;28;20508;-61
2021/09/13 07:08:17;;;;;;;16.67;6.40;;;;;;;14.02;100.00;101875.06;5073842;28;20445;-62
2021/09/13 07:10:43;;;;;;;14.43;6.38;;;;;;;14.13;100.00;101878.22;5073231;28;20173;-61
2021/09/13 07:13:12;;;;;;;18.33;7.07;;;;;;;14.25;100.00;101883.91;5073135;28;20036;-64
2021/09/13 07:15:37;;;;;;;12.07;6.22;;;;;;;14.54;100.00;101890.97;5073093;28;20598;-61
2021/09/13 07:18:05;;;;;;;10.43;5.60;;;;;;;14.46;100.00;101888.44;5072629;28;20129;-62
2021/09/13 07:20:31;;;;;;;8.97;5.40;;;;;;;14.55;100.00;101889.94;5072736;28;20040;-62
2021/09/13 07:22:56;;;;;;;16.42;5.38;;;;;;;14.62;100.00;101881.94;5073765;28;20625;-63
2021/09/13 07:25:22;;;;;;;9.13;4.75;;;;;;;14.66;100.00;101883.19;5055304;28;20345;-62
2021/09/13 07:27:47;;;;;;;10.55;5.32;;;;;;;14.80;100.00;101888.69;5072834;28;20075;-62
2021/09/13 07:30:13;;;;;;;10.20;5.30;;;;;;;14.85;100.00;101884.38;5072669;28;20455;-62
2021/09/13 07:32:40;;;;;;;11.60;5.10;;;;;;;14.97;100.00;101876.56;5072255;28;20549;-61
2021/09/13 07:35:07;;;;;;;7.37;4.40;;;;;;;15.05;100.00;101887.19;5072703;28;20484;-61
2021/09/13 07:37:34;;;;;;;8.47;4.27;;;;;;;15.25;100.00;101883.75;5072377;28;20476;-57
2021/09/13 07:39:59;;;;;;;9.97;4.53;;;;;;;15.34;100.00;101887.09;5056390;28;20036;-61
2021/09/13 07:42:25;;;;;;;7.82;4.15;;;;;;;15.42;100.00;101886.91;5080778;28;20046;-60
2021/09/13 07:44:51;;;;;;;7.55;3.42;;;;;;;15.58;100.00;101888.41;5064964;28;20090;-62
2021/09/13 07:47:18;;;;;;;10.55;5.35;;;;;;;15.65;100.00;101896.53;5054641;28;20036;-62
2021/09/13 07:49:44;;;;;;;6.57;3.53;;;;;;;15.89;100.00;101905.09;5088660;28;20085;-61
2021/09/13 07:52:09;;;;;;;10.75;3.92;;;;;;;16.11;100.00;101899.53;5090700;28;20028;-63
2021/09/13 07:54:35;;;;;;;7.72;3.55;;;;;;;16.36;100.00;101907.00;5089850;28;20090;-61
2021/09/13 07:57:00;;;;;;;8.43;4.07;;;;;;;16.60;100.00;101905.53;5068520;28;20044;-62
2021/09/13 07:59:26;;;;;;;15.73;4.55;;;;;;;16.84;100.00;101908.59;5083462;28;20399;-63
2021/09/13 08:01:51;;;;;;;9.40;4.25;;;;;;;17.11;100.00;101919.38;5061104;28;20119;-63
2021/09/13 08:04:17;;;;;;;9.80;4.60;;;;;;;17.20;100.00;101918.09;5072310;28;20425;-62
2021/09/13 08:06:42;;;;;;;9.02;4.40;;;;;;;17.42;100.00;101915.09;5072550;28;20040;-62
2021/09/13 08:09:08;;;;;;;10.43;4.20;;;;;;;17.67;100.00;101917.06;5072529;28;20075;-62
2021/09/13 08:11:34;;;;;;;14.07;3.67;;;;;;;17.87;100.00;101927.75;5072640;28;20064;-62
2021/09/13 08:14:01;;;;;;;13.33;5.67;;;;;;;17.99;100.00;101925.16;5072112;28;20040;-62
2021/09/13 08:16:28;;;;;;;10.93;3.53;;;;;;;18.24;100.00;101921.72;5072333;28;20052;-61
2021/09/13 08:18:57;;;;;;;9.63;4.00;;;;;;;18.29;100.00;101928.09;5072485;28;20091;-63
2021/09/13 08:21:22;;;;;;;9.93;3.27;;;;;;;18.56;100.00;101929.75;5073107;28;20051;-62
2021/09/13 08:23:48;;;;;;;9.57;2.80;;;;;;;18.75;100.00;101936.88;5058341;28;20020;-61
2021/09/13 08:26:16;;;;;;;;;;;;;;;18.93;100.00;101935.25;5058389;28;20055;-61
2021/09/13 08:28:42;;;;;;;8.32;2.60;;;;;;;19.12;100.00;101938.81;5072158;28;19919;-61
2021/09/13 08:31:08;;;;;;;;;;;;;;;19.39;100.00;101932.25;5058735;28;20056;-62
2021/09/13 08:33:34;;;;;;;4.90;2.60;;;;;;;19.66;100.00;101940.03;5076455;28;20007;-62
2021/09/13 08:36:00;;;;;;;6.90;2.77;;;;;;;19.84;100.00;101934.56;5058392;28;20043;-61
2021/09/13 08:38:26;;;;;;;7.97;3.42;;;;;;;19.83;100.00;101932.88;5076859;28;20411;-60
2021/09/13 08:40:52;;;;;;;7.38;2.85;;;;;;;20.02;100.00;101935.56;5075856;28;20085;-62
2021/09/13 08:43:18;;;;;;;;;;;;;;;20.03;100.00;101938.06;5076664;28;20063;-62
2021/09/13 08:45:49;;;;;;;6.30;2.97;;;;;;;20.32;100.00;101935.50;5057631;28;19920;-62
2021/09/13 08:48:21;;;;;;;5.03;2.97;;;;;;;20.64;100.00;101931.63;5058486;28;20046;-61
2021/09/13 08:53:17;;;;;;;8.18;3.22;;;;;;;21.12;100.00;101932.41;5092172;28;20357;-62
2021/09/13 08:55:44;;;;;;;5.83;2.80;;;;;;;21.21;100.00;101932.84;5080133;28;20045;-62
2021/09/13 08:58:13;;;;;;;5.60;3.00;;;;;;;21.09;100.00;101932.88;5075107;28;20098;-62
2021/09/13 09:00:42;;;;;;;6.37;2.83;;;;;;;20.98;100.00;101937.28;5075431;28;20036;-62
2021/09/13 09:03:09;;;;;;;7.53;2.53;;;;;;;21.14;100.00;101945.75;5092607;28;20052;-62
2021/09/13 09:05:46;;;;;;;7.63;2.50;;;;;;;21.57;100.00;101946.38;5096354;28;20493;-62
2021/09/13 09:08:26;;;;;;;9.50;2.73;;;;;;;22.11;100.00;101943.25;5096230;28;20047;-62
2021/09/13 09:11:01;;;;;;;5.20;2.93;;;;;;;21.77;100.00;101946.75;5078414;28;20070;-61
2021/09/13 09:13:36;;;;;;;5.27;2.97;;;;;;;22.00;100.00;101946.88;5079122;28;20039;-63
2021/09/13 09:16:04;;;;;;;4.27;2.57;;;;;;;21.54;100.00;101944.94;5092304;28;20028;-62
2021/09/13 09:18:39;;;;;;;7.73;2.33;;;;;;;21.27;100.00;101939.22;5078926;28;20459;-61
2021/09/13 09:21:06;;;;;;;6.53;2.30;;;;;;;21.12;100.00;101948.75;5095753;28;20032;-61
2021/09/13 09:23:34;;;;;;;8.13;2.97;;;;;;;20.86;100.00;101945.44;5095682;28;20563;-62
2021/09/13 09:26:11;;;;;;;5.60;2.83;;;;;;;20.77;100.00;101946.84;5086741;28;20036;-61
2021/09/13 09:28:37;;;;;;;7.27;2.73;;;;;;;20.61;100.00;101943.78;5082904;28;20033;-62
2021/09/13 09:31:02;;;;;;;9.02;3.10;;;;;;;20.44;100.00;101949.09;5095654;28;20498;-61
2021/09/13 09:33:28;;;;;;;6.68;2.83;;;;;;;21.82;100.00;101947.94;5096338;28;20127;-62
2021/09/13 09:35:56;;;;;;;10.33;3.03;;;;;;;20.60;100.00;101944.84;5095877;28;20046;-62
2021/09/13 09:38:34;;;;;;;6.67;2.33;;;;;;;20.61;100.00;101949.22;5096577;28;20040;-60
2021/09/13 09:41:07;;;;;;;6.80;2.50;;;;;;;20.64;100.00;101950.63;5092325;28;20062;-62
2021/09/13 09:43:55;;;;;;;12.93;2.90;;;;;;;20.42;100.00;101951.22;5095514;28;20036;-62
2021/09/13 09:46:43;;;;;;;5.07;2.27;;;;;;;20.29;100.00;101954.13;5096788;28;20027;-62
2021/09/13 09:49:13;;;;;;;7.53;2.15;;;;;;;20.39;100.00;101946.25;5096969;28;20040;-63
2021/09/13 09:51:42;;;;;;;6.13;2.20;;;;;;;20.41;100.00;101946.84;5078056;28;20032;-64
2021/09/13 09:54:14;;;;;;;6.40;2.50;;;;;;;20.52;100.00;101934.34;5084273;28;20110;-62
2021/09/13 09:56:41;;;;;;;4.53;1.93;;;;;;;20.63;100.00;101938.91;5082689;28;20036;-63
2021/09/13 09:59:10;;;;;;;4.80;1.80;;;;;;;20.63;100.00;101929.97;5083220;28;20045;-63
2021/09/13 10:01:45;;;;;;;7.43;1.40;;;;;;;20.68;100.00;101938.22;5065940;28;20048;-62
2021/09/13 10:04:22;;;;;;;5.17;1.40;;;;;;;20.78;100.00;101941.19;5085550;28;20081;-61
2021/09/13 10:06:49;;;;;;;;;;;;;;;20.90;100.00;101938.50;5085928;28;20048;-62
2021/09/13 10:09:15;;;;;;;;;;;;;;;20.86;100.00;101936.47;5090409;28;19912;-61
2021/09/13 10:11:42;;;;;;;6.27;1.40;;;;;;;20.91;100.00;101931.16;5093876;28;19916;-62
2021/09/13 10:14:13;;;;;;;3.90;1.33;;;;;;;20.67;100.00;101936.56;5094175;28;20455;-62
2021/09/13 10:16:41;;;;;;;2.53;1.70;;;;;;;20.68;100.00;101929.25;5094651;28;20047;-62
2021/09/13 10:19:07;;;;;;;7.50;2.33;;;;;;;20.70;100.00;101924.41;5093709;28;20539;-62
2021/09/13 10:21:33;;;;;;;9.27;2.47;;;;;;;20.61;100.00;101932.09;5092625;28;20076;-61
2021/09/13 10:24:01;;;;;;;5.20;2.17;;;;;;;20.61;100.00;101927.47;5091275;28;20116;-62
2021/09/13 10:26:27;;;;;;;4.23;1.80;;;;;;;20.69;100.00;101926.28;5080064;28;20032;-63
2021/09/13 10:29:02;;;;;;;3.50;1.55;;;;;;;20.76;100.00;101924.28;5094093;28;20081;-61
2021/09/13 10:31:43;;;;;;;3.17;1.40;;;;;;;20.84;100.00;101923.09;5074989;28;20556;-62
2021/09/13 10:34:27;;;;;;;4.70;1.60;;;;;;;20.90;100.00;101924.06;5094006;28;20471;-62
2021/09/13 10:36:59;;;;;;;6.33;1.60;;;;;;;21.01;100.00;101925.94;5076254;28;20510;-61
2021/09/13 10:39:55;;;;;;;8.80;1.70;;;;;;;21.20;100.00;101923.03;5085295;28;20131;-62
2021/09/13 10:42:36;;;;;;;9.23;2.20;;;;;;;21.34;100.00;101924.41;5079862;28;20040;-61
2021/09/13 10:45:31;;;;;;;8.20;1.77;;;;;;;21.48;100.00;101918.72;5093324;28;20036;-61
2021/09/13 10:47:57;;;;;;;3.67;1.53;;;;;;;21.61;100.00;101918.41;5075361;28;20042;-62
2021/09/13 10:50:32;;;;;;;5.10;1.75;;;;;;;21.70;100.00;101920.78;5076189;28;20111;-61
2021/09/13 10:52:58;;;;;;;5.90;2.00;;;;;;;21.84;100.00;101915.84;5093393;28;20047;-60
2021/09/13 10:55:25;;;;;;;8.57;1.70;;;;;;;22.10;100.00;101916.28;5093738;28;20522;-61
2021/09/13 10:57:57;;;;;;;4.17;1.73;;;;;;;22.48;100.00;101906.53;5093351;28;20059;-61
2021/09/13 11:00:40;;;;;;;6.00;2.03;;;;;;;23.48;100.00;101916.56;5094065;28;20042;-61
2021/09/13 11:06:17;;;;;;;3.25;1.60;;;;;;;25.05;88.95;101902.97;5074579;28;20063;-60
2021/09/13 11:08:49;;;;;;;3.25;1.38;;;;;;;24.76;81.42;101904.19;5092805;28;20032;-62
2021/09/13 11:11:28;;;;;;;2.80;1.20;;;;;;;24.52;86.83;101909.22;5093316;28;20044;-62
2021/09/13 11:14:03;;;;;;;4.15;1.05;;;;;;;24.33;84.34;101893.25;5093180;28;20036;-60
2021/09/13 11:16:32;;;;;;;2.22;1.15;;;;;;;25.48;79.55;101900.09;5089525;28;20087;-61
2021/09/13 11:18:59;;;;;;;5.75;1.70;;;;;;;26.39;71.24;101907.78;5093222;28;20039;-62
2021/09/13 11:21:34;;;;;;;2.80;1.70;;;;;;;25.80;73.27;101899.00;5093515;28;20040;-62
2021/09/13 11:24:03;;;;;;;9.43;2.42;;;;;;;25.76;73.74;101896.00;5075272;28;20043;-62